createdAt,value
2019-05-17T00:01:49.485Z,73.70
2019-05-17T00:04:20.634Z,66.75
2019-05-17T00:06:51.632Z,65.08
2019-05-17T00:09:22.578Z,63.85
2019-05-17T00:11:53.567Z,56.68
2019-05-17T00:14:24.518Z,61.13
2019-05-17T00:16:57.326Z,72.47
2019-05-17T00:19:28.163Z,53.73
2019-05-17T00:21:59.135Z,57.05
2019-05-17T00:24:30.077Z,63.20
2019-05-17T00:27:01.054Z,61.42
2019-05-17T00:29:31.998Z,66.97
2019-05-17T00:32:02.986Z,70.50
2019-05-17T00:34:33.925Z,84.47
2019-05-17T00:37:07.002Z,84.95
2019-05-17T00:39:37.553Z,64.40
2019-05-17T00:42:08.531Z,71.57
2019-05-17T00:44:39.502Z,74.37
2019-05-17T00:47:10.985Z,64.55
2019-05-17T00:49:42.036Z,79.85
2019-05-17T00:52:12.975Z,72.55
2019-05-17T00:54:43.950Z,67.45
2019-05-17T00:57:16.625Z,65.70
2019-05-17T00:59:47.750Z,75.75
2019-05-17T01:02:18.692Z,67.27
2019-05-17T01:04:49.671Z,71.82
2019-05-17T01:07:20.613Z,75.72
2019-05-17T01:09:52.017Z,73.42
2019-05-17T01:12:22.965Z,74.22
2019-05-17T01:14:53.948Z,68.60
2019-05-17T01:17:26.945Z,74.60
2019-05-17T01:19:57.626Z,61.33
2019-05-17T01:22:28.579Z,63.83
2019-05-17T01:24:59.570Z,58.65
2019-05-17T01:27:30.525Z,65.80
2019-05-17T01:30:01.586Z,70.92
2019-05-17T01:32:33.840Z,81.60
2019-05-17T01:35:07.295Z,72.53
2019-05-17T01:37:38.590Z,73.10
2019-05-17T01:40:09.846Z,83.52
2019-05-17T01:42:40.931Z,68.90
2019-05-17T01:45:12.318Z,65.37
2019-05-17T01:47:43.297Z,90.38
2019-05-17T01:50:14.550Z,79.27
2019-05-17T01:52:46.199Z,82.05
2019-05-17T01:55:17.534Z,69.10
2019-05-17T01:57:48.596Z,71.90
2019-05-17T02:00:20.033Z,59.83
2019-05-17T02:02:52.582Z,64.10
2019-05-17T02:05:23.549Z,73.45
2019-05-17T02:07:56.828Z,58.65
2019-05-17T02:10:27.247Z,52.17
2019-05-17T02:12:58.303Z,57.38
2019-05-17T02:15:29.256Z,72.92
2019-05-17T02:18:01.295Z,55.98
2019-05-17T02:20:32.250Z,65.15
2019-05-17T02:23:03.226Z,60.05
2019-05-17T02:25:36.676Z,55.65
2019-05-17T02:28:07.999Z,58.33
2019-05-17T02:30:39.381Z,56.20
2019-05-17T02:33:12.616Z,54.42
2019-05-17T02:35:43.203Z,52.00
2019-05-17T02:38:14.174Z,60.78
2019-05-17T02:40:45.193Z,55.15
2019-05-17T02:43:16.131Z,47.40
2019-05-17T02:45:47.115Z,57.03
2019-05-17T02:48:18.057Z,53.23
2019-05-17T02:50:49.036Z,47.43
2019-05-17T02:53:22.877Z,59.75
2019-05-17T02:55:53.895Z,54.53
2019-05-17T02:58:25.230Z,58.48
2019-05-17T03:00:56.211Z,67.78
2019-05-17T03:03:27.153Z,49.18
2019-05-17T03:05:58.186Z,60.65
2019-05-17T03:08:29.160Z,62.60
2019-05-17T03:11:03.203Z,59.88
2019-05-17T03:13:33.147Z,65.97
2019-05-17T03:16:04.338Z,61.65
2019-05-17T03:18:35.315Z,65.17
2019-05-17T03:21:06.295Z,62.78
2019-05-17T03:23:37.325Z,60.10
2019-05-17T03:26:08.286Z,49.27
2019-05-17T03:28:42.456Z,52.08
2019-05-17T03:31:17.071Z,67.10
2019-05-17T03:33:46.192Z,55.40
2019-05-17T03:36:18.605Z,63.58
2019-05-17T03:38:49.674Z,61.58
2019-05-17T03:41:27.862Z,66.00
2019-05-17T03:43:54.339Z,62.83
2019-05-17T03:46:25.301Z,53.63
2019-05-17T03:48:56.332Z,50.15
2019-05-17T03:51:28.852Z,47.23
2019-05-17T03:54:02.409Z,54.73
2019-05-17T03:56:33.135Z,65.62
2019-05-17T03:59:04.416Z,59.18
2019-05-17T04:01:35.769Z,83.03
2019-05-17T04:04:06.745Z,96.42
2019-05-17T04:06:37.759Z,156.20
2019-05-17T04:09:09.542Z,99.65
2019-05-17T04:11:42.913Z,100.80
2019-05-17T04:14:13.886Z,297.20
2019-05-17T04:16:45.312Z,160.95
2019-05-17T04:19:16.346Z,231.63
2019-05-17T04:21:47.388Z,70.35
2019-05-17T04:24:18.392Z,76.77
2019-05-17T04:26:52.029Z,97.37
2019-05-17T04:29:22.780Z,98.07
2019-05-17T04:31:54.983Z,81.60
2019-05-17T04:34:26.021Z,57.40
2019-05-17T04:36:56.996Z,61.88
2019-05-17T04:39:27.942Z,67.03
2019-05-17T04:41:58.924Z,68.17
2019-05-17T04:44:32.074Z,74.05
2019-05-17T04:47:03.293Z,65.75
2019-05-17T04:49:34.607Z,64.00
2019-05-17T04:52:05.651Z,67.78
2019-05-17T04:54:36.595Z,67.78
2019-05-17T04:57:07.568Z,68.07
2019-05-17T04:59:38.504Z,84.97
2019-05-17T05:02:12.916Z,78.12
2019-05-17T05:04:43.540Z,89.17
2019-05-17T05:07:14.884Z,93.37
2019-05-17T05:09:45.905Z,76.80
2019-05-17T05:12:16.875Z,72.45
2019-05-17T05:14:47.823Z,73.47
2019-05-17T05:17:22.193Z,75.12
2019-05-17T05:19:53.008Z,78.85
2019-05-17T05:22:24.212Z,70.92
2019-05-17T05:24:55.163Z,74.85
2019-05-17T05:27:26.135Z,74.82
2019-05-17T05:29:57.080Z,73.15
2019-05-17T05:32:28.067Z,63.02
2019-05-17T05:34:59.063Z,71.35
2019-05-17T05:37:32.989Z,70.67
2019-05-17T05:40:02.721Z,63.40
2019-05-17T05:42:33.740Z,67.12
2019-05-17T05:45:05.484Z,63.40
2019-05-17T05:47:36.465Z,53.42
2019-05-17T05:50:08.538Z,63.30
2019-05-17T05:52:41.901Z,58.20
2019-05-17T05:55:12.665Z,54.93
2019-05-17T05:57:43.786Z,56.50
2019-05-17T06:00:16.067Z,54.25
2019-05-17T06:02:47.119Z,51.88
2019-05-17T06:05:21.767Z,46.83
2019-05-17T06:07:52.272Z,52.43
2019-05-17T06:10:23.703Z,48.40
2019-05-17T06:12:54.774Z,78.17
2019-05-17T06:15:25.952Z,44.33
2019-05-17T06:17:56.984Z,45.12
2019-05-17T06:20:27.972Z,40.00
2019-05-17T06:22:58.910Z,44.23
2019-05-17T06:25:33.779Z,48.00
2019-05-17T06:28:03.782Z,43.25
2019-05-17T06:30:34.764Z,42.50
2019-05-17T06:33:05.941Z,42.33
2019-05-17T06:35:36.884Z,33.80
2019-05-17T06:38:07.855Z,35.25
2019-05-17T06:40:38.807Z,27.52
2019-05-17T06:43:12.786Z,33.20
2019-05-17T06:45:42.750Z,29.27
2019-05-17T06:48:13.733Z,29.40
2019-05-17T06:50:44.702Z,26.73
2019-05-17T06:53:15.759Z,34.48
2019-05-17T06:55:46.706Z,31.15
2019-05-17T06:58:17.694Z,30.32
2019-05-17T07:00:49.762Z,28.25
2019-05-17T07:03:21.006Z,25.32
2019-05-17T07:05:56.462Z,29.60
2019-05-17T07:08:29.484Z,33.33
2019-05-17T07:11:00.092Z,29.87
2019-05-17T07:13:31.129Z,21.82
2019-05-17T07:16:02.118Z,21.35
2019-05-17T07:18:33.066Z,20.43
2019-05-17T07:21:04.049Z,22.75
2019-05-17T07:23:35.193Z,23.47
2019-05-17T07:26:09.069Z,20.85
2019-05-17T07:28:40.403Z,19.73
2019-05-17T07:31:11.689Z,17.77
2019-05-17T07:33:42.643Z,17.25
2019-05-17T07:36:13.617Z,17.15
2019-05-17T07:38:44.565Z,76.28
2019-05-17T07:41:15.547Z,15.98
2019-05-17T07:43:46.490Z,18.27
2019-05-17T07:46:17.468Z,27.90
2019-05-17T07:48:49.717Z,18.05
2019-05-17T07:51:20.928Z,13.28
2019-05-17T07:53:51.914Z,18.57
2019-05-17T07:56:22.865Z,17.45
2019-05-17T07:58:53.855Z,22.20
2019-05-17T08:01:24.798Z,17.77
2019-05-17T08:03:55.801Z,17.42
2019-05-17T08:06:26.752Z,17.65
2019-05-17T08:09:03.898Z,15.20
2019-05-17T08:11:33.150Z,15.10
2019-05-17T08:14:04.126Z,18.55
2019-05-17T08:16:35.079Z,15.80
2019-05-17T08:19:06.058Z,18.37
2019-05-17T08:21:39.603Z,13.40
2019-05-17T08:24:10.462Z,13.13
2019-05-17T08:26:41.533Z,14.53
2019-05-17T08:29:12.513Z,15.25
2019-05-17T08:31:43.460Z,15.50
2019-05-17T08:34:14.482Z,15.45
2019-05-17T08:36:45.440Z,15.85
2019-05-17T08:39:16.426Z,18.02
2019-05-17T08:41:49.635Z,18.80
2019-05-17T08:44:20.058Z,15.58
2019-05-17T08:46:51.013Z,14.53
2019-05-17T08:49:22.003Z,15.40
2019-05-17T08:51:52.952Z,19.12
2019-05-17T08:54:23.937Z,22.27
2019-05-17T08:56:54.885Z,19.98
2019-05-17T08:59:25.873Z,19.02
2019-05-17T09:01:56.822Z,28.20
2019-05-17T09:04:29.753Z,19.17
2019-05-17T09:07:03.161Z,15.40
2019-05-17T09:09:33.138Z,12.10
2019-05-17T09:12:04.118Z,14.60
2019-05-17T09:14:35.102Z,11.08
2019-05-17T09:17:06.089Z,14.90
2019-05-17T09:19:39.365Z,17.50
2019-05-17T09:22:10.429Z,13.95
2019-05-17T09:24:41.636Z,12.90
2019-05-17T09:27:12.621Z,10.75
2019-05-17T09:29:43.568Z,11.75
2019-05-17T09:32:14.570Z,11.85
2019-05-17T09:34:45.569Z,13.83
2019-05-17T09:37:19.056Z,10.93
2019-05-17T09:39:49.376Z,9.95
2019-05-17T09:42:21.075Z,9.35
2019-05-17T09:44:52.183Z,16.10
2019-05-17T09:47:23.172Z,10.03
2019-05-17T09:49:55.263Z,9.47
2019-05-17T09:52:26.240Z,8.20
2019-05-17T09:54:57.297Z,209.90
2019-05-17T09:57:29.830Z,14.15
2019-05-17T10:00:01.006Z,36.77
2019-05-17T10:02:33.530Z,8.70
2019-05-17T10:05:06.713Z,8.27
2019-05-17T10:07:39.977Z,9.67
2019-05-17T10:10:10.927Z,6.43
2019-05-17T10:12:41.926Z,5.77
2019-05-17T10:15:12.898Z,5.90
2019-05-17T10:17:43.841Z,10.67
2019-05-17T10:20:15.673Z,5.87
2019-05-17T10:22:46.609Z,5.73
2019-05-17T10:25:19.971Z,6.87
2019-05-17T10:27:50.349Z,9.90
2019-05-17T10:30:21.349Z,14.97
2019-05-17T10:32:52.376Z,8.83
2019-05-17T10:35:23.351Z,6.77
2019-05-17T10:37:54.292Z,8.40
2019-05-17T10:40:25.551Z,5.20
2019-05-17T10:42:56.490Z,9.37
2019-05-17T10:45:27.463Z,7.50
2019-05-17T10:48:00.626Z,7.23
2019-05-17T10:50:31.099Z,7.83
2019-05-17T10:53:02.135Z,5.30
2019-05-17T10:55:33.108Z,8.67
2019-05-17T10:58:04.056Z,51.80
2019-05-17T11:00:35.041Z,8.77
2019-05-17T11:03:06.109Z,5.07
2019-05-17T11:05:39.909Z,4.90
2019-05-17T11:08:10.731Z,4.00
2019-05-17T11:10:41.980Z,3.57
2019-05-17T11:13:13.926Z,6.30
2019-05-17T11:15:45.890Z,4.80
2019-05-17T11:18:16.843Z,5.77
2019-05-17T11:20:47.805Z,3.30
2019-05-17T11:23:18.744Z,3.47
2019-05-17T11:25:49.727Z,3.60
2019-05-17T11:28:20.745Z,2.93
2019-05-17T11:30:51.716Z,10.00
2019-05-17T11:33:22.702Z,11.33
2019-05-17T11:35:54.188Z,4.50
2019-05-17T11:38:25.156Z,3.03
2019-05-17T11:40:56.195Z,3.83
2019-05-17T11:43:27.186Z,2.73
2019-05-17T11:45:58.175Z,6.20
2019-05-17T11:48:30.262Z,4.87
2019-05-17T11:51:01.198Z,6.03
2019-05-17T11:53:32.174Z,5.33
2019-05-17T11:56:03.118Z,2.17
2019-05-17T11:58:34.089Z,2.23
2019-05-17T12:01:05.136Z,3.27
2019-05-17T12:03:36.122Z,2.90
2019-05-17T12:06:07.063Z,9.43
2019-05-17T12:08:38.235Z,5.23
2019-05-17T12:11:09.220Z,3.03
2019-05-17T12:13:43.383Z,3.20
2019-05-17T12:16:12.890Z,3.70
2019-05-17T12:18:43.863Z,4.90
2019-05-17T12:21:14.936Z,3.77
2019-05-17T12:23:45.889Z,6.90
2019-05-17T12:26:16.860Z,2.67
2019-05-17T12:28:47.795Z,2.90
2019-05-17T12:31:18.768Z,2.47
2019-05-17T12:33:50.726Z,2.37
2019-05-17T12:36:21.848Z,4.53
2019-05-17T12:38:52.880Z,2.30
2019-05-17T12:41:23.904Z,2.30
2019-05-17T12:43:54.850Z,3.17
2019-05-17T12:46:26.817Z,5.50
2019-05-17T12:48:57.760Z,2.23
2019-05-17T12:51:32.884Z,3.67
2019-05-17T12:54:02.956Z,3.37
2019-05-17T12:56:34.001Z,3.10
2019-05-17T12:59:05.206Z,2.23
2019-05-17T13:01:36.171Z,1.43
2019-05-17T13:04:07.119Z,1.90
2019-05-17T13:06:38.094Z,0.87
2019-05-17T13:09:09.149Z,1.40
2019-05-17T13:11:40.121Z,2.27
2019-05-17T13:14:11.061Z,1.27
2019-05-17T13:16:42.035Z,1.43
2019-05-17T13:19:12.990Z,2.83
2019-05-17T13:21:43.968Z,1.70
2019-05-17T13:24:14.918Z,1.23
2019-05-17T13:26:45.888Z,1.63
2019-05-17T13:29:16.835Z,2.30
2019-05-17T13:31:47.809Z,1.27
2019-05-17T13:34:18.774Z,0.93
2019-05-17T13:36:49.758Z,1.27
2019-05-17T13:39:20.697Z,5.27
2019-05-17T13:41:51.675Z,30.43
2019-05-17T13:44:22.628Z,3.13
2019-05-17T13:46:53.588Z,1.40
2019-05-17T13:49:24.539Z,2.77
2019-05-17T13:51:55.516Z,4.87
2019-05-17T13:54:26.560Z,3.63
2019-05-17T13:56:57.572Z,3.40
2019-05-17T13:59:28.550Z,2.53
2019-05-17T14:01:59.565Z,2.17
2019-05-17T14:04:30.546Z,10.00
2019-05-17T14:07:01.484Z,1.20
2019-05-17T14:09:32.460Z,2.20
2019-05-17T14:12:03.424Z,5.77
2019-05-17T14:14:34.465Z,10.27
2019-05-17T14:17:05.904Z,1.30
2019-05-17T14:19:36.876Z,4.33
2019-05-17T14:22:07.822Z,10.93
2019-05-17T14:24:38.807Z,20.97
2019-05-17T14:27:09.753Z,11.67
2019-05-17T14:29:40.795Z,27.67
2019-05-17T14:32:12.311Z,7.60
2019-05-17T14:34:43.554Z,2.03
2019-05-17T14:37:14.508Z,5.30
2019-05-17T14:39:45.484Z,5.37
2019-05-17T14:42:16.431Z,9.13
2019-05-17T14:44:47.403Z,3.27
2019-05-17T14:47:18.337Z,3.20
2019-05-17T14:49:51.206Z,1.70
2019-05-17T14:52:21.978Z,1.60
2019-05-17T14:54:52.955Z,14.70
2019-05-17T14:57:23.940Z,1.33
2019-05-17T14:59:54.911Z,5.90
2019-05-17T15:02:25.935Z,1.53
2019-05-17T15:04:57.006Z,14.03
2019-05-17T15:07:28.050Z,13.83
2019-05-17T15:09:58.999Z,14.17
2019-05-17T15:12:29.993Z,9.50
2019-05-17T15:15:00.938Z,4.33
2019-05-17T15:17:34.989Z,3.33
2019-05-17T15:20:06.650Z,10.60
2019-05-17T15:22:37.624Z,2.43
2019-05-17T15:25:08.760Z,1.40
2019-05-17T15:27:39.727Z,6.10
2019-05-17T15:30:11.370Z,2.73
2019-05-17T15:32:42.353Z,16.23
2019-05-17T15:35:13.345Z,11.40
2019-05-17T15:37:44.320Z,5.73
2019-05-17T15:40:15.776Z,4.27
2019-05-17T15:42:46.757Z,2.00
2019-05-17T15:45:17.802Z,5.93
2019-05-17T15:47:48.775Z,1.37
2019-05-17T15:50:19.842Z,12.90
2019-05-17T15:52:50.824Z,7.27
2019-05-17T15:55:22.573Z,4.60
2019-05-17T15:57:53.812Z,1.23
2019-05-17T16:00:26.645Z,9.60
2019-05-17T16:02:57.619Z,5.20
2019-05-17T16:05:31.340Z,2.37
2019-05-17T16:10:51.151Z,3.10
2019-05-17T16:13:22.664Z,3.47
2019-05-17T16:15:53.978Z,6.17
2019-05-17T16:18:25.050Z,2.20
2019-05-17T16:20:56.395Z,1.40
2019-05-17T16:23:29.862Z,3.33
2019-05-17T16:26:00.831Z,1.50
2019-05-17T16:28:34.665Z,7.27
2019-05-17T16:31:05.917Z,2.30
2019-05-17T16:33:38.625Z,5.63
2019-05-17T16:36:09.622Z,2.17
2019-05-17T16:38:40.660Z,1.93
2019-05-17T16:41:11.679Z,1.47
2019-05-17T16:43:44.182Z,1.83
2019-05-17T16:46:15.197Z,2.57
2019-05-17T16:48:46.171Z,1.90
2019-05-17T16:51:17.258Z,2.43
2019-05-17T16:53:48.327Z,2.67
2019-05-17T16:56:19.377Z,14.03
2019-05-17T16:58:50.610Z,20.93
2019-05-17T17:01:23.232Z,1.77
2019-05-17T17:03:54.328Z,2.30
2019-05-17T17:06:25.635Z,10.40
2019-05-17T17:08:56.635Z,19.90
2019-05-17T17:11:27.826Z,3.27
2019-05-17T17:13:58.847Z,54.60
2019-05-17T17:16:29.821Z,4.30
2019-05-17T17:19:00.784Z,3.57
2019-05-17T17:21:31.759Z,2.20
2019-05-17T17:24:02.711Z,14.03
2019-05-17T17:26:33.689Z,5.00
2019-05-17T17:29:04.821Z,6.30
2019-05-17T17:31:36.069Z,3.00
2019-05-17T17:34:07.217Z,3.17
2019-05-17T17:36:38.472Z,9.80
2019-05-17T17:39:09.707Z,42.67
2019-05-17T17:41:40.941Z,4.20
2019-05-17T17:44:12.177Z,10.77
2019-05-17T17:46:43.403Z,5.80
2019-05-17T17:49:16.185Z,3.63
2019-05-17T17:51:47.708Z,10.53
2019-05-17T17:54:19.159Z,2.20
2019-05-17T17:56:50.437Z,10.30
2019-05-17T17:59:24.273Z,3.00
2019-05-17T18:01:55.304Z,7.30
2019-05-17T18:04:26.539Z,9.50
2019-05-17T18:06:58.106Z,5.23
2019-05-17T18:09:29.160Z,15.90
2019-05-17T18:12:00.107Z,3.50
2019-05-17T18:14:31.185Z,3.90
2019-05-17T18:17:02.139Z,6.70
2019-05-17T18:19:33.157Z,5.37
2019-05-17T18:22:04.146Z,5.03
2019-05-17T18:24:35.144Z,12.63
2019-05-17T18:27:06.188Z,8.20
2019-05-17T18:29:37.185Z,23.07
2019-05-17T18:32:09.632Z,5.50
2019-05-17T18:34:40.976Z,26.43
2019-05-17T18:37:12.038Z,8.53
2019-05-17T18:39:43.010Z,5.10
2019-05-17T18:42:13.958Z,4.83
2019-05-17T18:44:44.934Z,8.67
2019-05-17T18:47:15.879Z,13.47
2019-05-17T18:49:46.951Z,17.40
2019-05-17T18:52:21.188Z,8.70
2019-05-17T18:54:52.170Z,13.13
2019-05-17T18:57:23.290Z,13.20
2019-05-17T18:59:54.236Z,15.50
2019-05-17T19:02:25.231Z,10.43
2019-05-17T19:04:56.194Z,9.90
2019-05-17T19:07:27.247Z,11.35
2019-05-17T19:09:58.214Z,9.33
2019-05-17T19:12:29.227Z,11.88
2019-05-17T19:15:00.810Z,12.13
2019-05-17T19:17:33.538Z,14.03
2019-05-17T19:20:06.308Z,10.13
2019-05-17T19:22:37.548Z,7.65
2019-05-17T19:25:10.764Z,6.95
2019-05-17T19:27:44.464Z,8.28
2019-05-17T19:30:17.340Z,6.47
2019-05-17T19:32:48.817Z,21.68
2019-05-17T19:35:20.377Z,26.55
2019-05-17T19:37:54.696Z,22.02
2019-05-17T19:40:25.954Z,18.07
2019-05-17T19:42:56.944Z,10.63
2019-05-17T19:45:27.960Z,4.03
2019-05-17T19:47:59.018Z,7.20
2019-05-17T19:50:30.047Z,12.07
2019-05-17T19:53:01.106Z,6.58
2019-05-17T19:55:33.396Z,6.95
2019-05-17T19:58:04.522Z,9.35
2019-05-17T20:00:35.725Z,18.87
2019-05-17T20:03:06.712Z,11.03
2019-05-17T20:05:37.709Z,25.27
2019-05-17T20:08:08.746Z,21.60
2019-05-17T20:10:39.689Z,10.00
2019-05-17T20:13:10.792Z,5.55
2019-05-17T20:15:43.324Z,7.65
2019-05-17T20:18:15.078Z,8.20
2019-05-17T20:20:46.017Z,9.90
2019-05-17T20:23:18.067Z,8.40
2019-05-17T20:25:49.236Z,10.20
2019-05-17T20:28:20.186Z,7.12
2019-05-17T20:30:54.991Z,10.25
2019-05-17T20:33:26.322Z,13.18
2019-05-17T20:35:57.338Z,8.75
2019-05-17T20:38:28.289Z,41.95
2019-05-17T20:40:59.271Z,15.55
2019-05-17T20:43:30.229Z,11.73
2019-05-17T20:46:01.294Z,20.15
2019-05-17T20:48:32.279Z,30.50
2019-05-17T20:51:03.382Z,32.58
2019-05-17T20:53:34.402Z,8.15
2019-05-17T20:56:06.595Z,77.65
2019-05-17T20:58:37.539Z,26.82
2019-05-17T21:01:08.594Z,6.55
2019-05-17T21:03:39.616Z,12.68
2019-05-17T21:06:12.007Z,14.78
2019-05-17T21:08:45.888Z,6.95
2019-05-17T21:11:16.730Z,20.20
2019-05-17T21:13:47.702Z,9.63
2019-05-17T21:16:18.684Z,9.60
2019-05-17T21:18:49.616Z,8.63
2019-05-17T21:21:20.601Z,7.90
2019-05-17T21:23:51.558Z,6.12
2019-05-17T21:26:22.601Z,11.45
2019-05-17T21:28:53.630Z,9.83
2019-05-17T21:31:24.781Z,5.97
2019-05-17T21:33:55.805Z,7.10
2019-05-17T21:36:26.949Z,5.30
2019-05-17T21:38:57.948Z,9.93
2019-05-17T21:41:28.920Z,15.78
2019-05-17T21:44:01.534Z,13.70
2019-05-17T21:46:32.478Z,11.50
2019-05-17T21:49:03.518Z,13.13
2019-05-17T21:51:34.468Z,5.95
2019-05-17T21:54:05.438Z,5.33
2019-05-17T21:56:36.429Z,10.05
2019-05-17T21:59:07.496Z,13.32
2019-05-17T22:01:38.433Z,10.18
2019-05-17T22:04:09.406Z,5.83
2019-05-17T22:06:40.637Z,7.25
2019-05-17T22:09:11.651Z,7.40
2019-05-17T22:11:44.817Z,8.50
2019-05-17T22:14:15.908Z,8.90
2019-05-17T22:16:46.842Z,8.05
2019-05-17T22:19:17.808Z,6.62
2019-05-17T22:21:48.760Z,6.17
2019-05-17T22:24:19.742Z,10.65
2019-05-17T22:26:50.670Z,9.73
2019-05-17T22:29:21.687Z,11.05
2019-05-17T22:31:52.756Z,16.97
2019-05-17T22:34:24.088Z,7.08
2019-05-17T22:36:55.140Z,20.00
2019-05-17T22:39:26.129Z,17.00
2019-05-17T22:41:57.340Z,9.45
2019-05-17T22:44:28.498Z,9.75
2019-05-17T22:47:08.687Z,18.75
2019-05-17T22:49:47.884Z,17.62
2019-05-17T22:52:19.604Z,14.45
2019-05-17T22:54:56.058Z,11.18
2019-05-17T22:57:35.422Z,7.17
2019-05-17T23:00:12.893Z,12.05
2019-05-17T23:02:50.433Z,11.08
2019-05-17T23:05:28.943Z,9.40
2019-05-17T23:08:17.878Z,29.18
2019-05-17T23:11:08.886Z,10.30
2019-05-17T23:13:48.288Z,7.10
2019-05-17T23:16:30.197Z,14.28
2019-05-17T23:19:08.935Z,12.45
2019-05-17T23:21:46.615Z,9.05
2019-05-17T23:24:19.051Z,15.78
2019-05-17T23:26:51.374Z,9.05
2019-05-17T23:29:36.896Z,15.00
2019-05-17T23:32:18.901Z,7.00
2019-05-17T23:35:12.309Z,11.18
2019-05-17T23:38:01.149Z,8.95
2019-05-17T23:40:33.541Z,8.13
2019-05-17T23:43:07.932Z,12.58
2019-05-17T23:45:42.790Z,8.40
2019-05-17T23:48:15.312Z,11.33
2019-05-17T23:50:56.856Z,8.18
2019-05-17T23:53:27.970Z,8.60
2019-05-17T23:55:59.938Z,8.80
2019-05-17T23:58:30.982Z,11.88
